Terminal Aerodrome Forecast
Issued by NWS

Home | Current Version | Previous Version | Graphics & Text | Print | Product List | Glossary On
Versions: 1 2 3 4 5 6 7 8 9 10 11 12 13
000
FTUS43 KIWX 260805 AAA
TAFSBN
TAF AMD
KSBN 260805Z 2608/2706 00000KT 6SM BR FEW150 BKN250
     FM260900 00000KT 3SM BR SCT150
      TEMPO 2609/2612 1 1/2SM BR
     FM261400 06006KT P6SM FEW050 BKN200
     FM270000 VRB03KT P6SM SCT250=

USA.gov is the U.S. government's official web portal to all federal, state and local government web resources and services.